King, North Carolina
Current Conditions -  °F | °C
As of 5:54 PM on Thursday 23 Oct 2014 (Local Time) from KINT Reporting Station
Clear Clear  
Wind Chill: 64°   Ceiling: Unl
Heat Index: 64°   Visibility: 10mi
Dew Point: 39°   Wind: 8mph
Humidity: 40%   Direction: 300°WNW
Pressure: 30"   Gusts: NA
Location:  36.28°N, 80.36°W
Report Text: KINT 232154Z AUTO 30007KT 10SM CLR 18/04 A3000 RMK AO2 SLP156 T01780039
Loading
Personal Weather Stations






























Interactive Weather Map
Tropical Storm Tracking
New forecast layout! Learn more

10-Day Weather Forecast

Advertisements
Track Severe Weather on mobile